Time;durP1;ratioP1;P1;durP2;ratioP2;P2;SDS_P1;SDS_P2;PMS_P1;PMS_P2;Temp;Humidity;BMP_temperature;BMP_pressure;BME280_temperature;BME280_humidity;BME280_pressure;Samples;Min_cycle;Max_cycle;Signal;HPM_P1;HPM_P2
2021/07/02 00:00:17;;;;;;;22.27;11.80;;;;;;;23.59;58.22;94613.56;5077486;28;20196;-66
2021/07/02 00:02:44;;;;;;;18.70;10.50;;;;;;;23.26;59.07;94621.06;5087492;28;20206;-64
2021/07/02 00:05:12;;;;;;;15.97;11.27;;;;;;;23.44;58.21;94623.13;5088698;28;20203;-64
2021/07/02 00:07:40;;;;;;;19.90;11.10;;;;;;;23.42;58.83;94624.56;5088756;28;20206;-68
2021/07/02 00:10:07;;;;;;;14.93;10.47;;;;;;;23.52;58.41;94613.38;5089180;28;20212;-64
2021/07/02 00:12:35;;;;;;;17.57;11.53;;;;;;;23.55;57.71;94612.69;5091364;28;20274;-66
2021/07/02 00:15:04;;;;;;;19.23;11.40;;;;;;;23.53;58.11;94613.03;5079002;28;20191;-64
2021/07/02 00:17:31;;;;;;;19.33;11.07;;;;;;;23.58;57.79;94623.47;5092685;28;20191;-62
2021/07/02 00:19:58;;;;;;;20.67;12.40;;;;;;;23.38;58.93;94623.69;5083446;28;20210;-63
2021/07/02 00:22:25;;;;;;;22.07;11.07;;;;;;;23.34;58.51;94631.63;5092316;28;20187;-67
2021/07/02 00:24:52;;;;;;;20.23;11.80;;;;;;;23.34;58.96;94645.00;5092492;28;20676;-66
2021/07/02 00:27:19;;;;;;;17.07;11.40;;;;;;;23.50;58.66;94661.84;5093007;28;20206;-63
2021/07/02 00:29:46;;;;;;;15.17;10.50;;;;;;;22.93;59.69;94675.53;5092095;28;20223;-64
2021/07/02 00:32:12;;;;;;;16.33;9.37;;;;;;;22.87;59.27;94684.09;5092211;28;20253;-68
2021/07/02 00:34:40;;;;;;;19.10;10.17;;;;;;;22.74;59.34;94691.34;5077857;28;20215;-68
2021/07/02 00:37:06;;;;;;;21.97;9.60;;;;;;;22.64;59.71;94701.72;5089261;28;20206;-71
2021/07/02 00:39:33;;;;;;;18.73;9.50;;;;;;;22.52;59.40;94707.81;5081272;28;20694;-69
2021/07/02 00:42:00;;;;;;;17.43;8.83;;;;;;;22.24;60.20;94714.94;5087257;28;20195;-66
2021/07/02 00:44:42;;;;;;;20.50;9.17;;;;;;;22.44;59.40;94711.38;5092010;28;20677;-66
2021/07/02 00:47:11;;;;;;;18.37;9.23;;;;;;;22.17;60.36;94709.34;5089281;28;20665;-67
2021/07/02 00:49:39;;;;;;;17.30;10.03;;;;;;;21.91;60.99;94706.22;5082348;28;20208;-65
2021/07/02 00:52:09;;;;;;;16.50;9.13;;;;;;;21.78;61.11;94712.59;5084881;28;20203;-65
2021/07/02 00:54:39;;;;;;;18.77;9.63;;;;;;;21.63;61.91;94711.31;5091239;28;20285;-63
2021/07/02 00:57:09;;;;;;;20.77;9.17;;;;;;;21.45;61.75;94711.81;5076984;28;20223;-68
2021/07/02 00:59:41;;;;;;;20.10;8.77;;;;;;;21.44;61.87;94703.03;5089376;28;20295;-65
2021/07/02 01:02:10;;;;;;;15.20;8.77;;;;;;;21.52;61.32;94710.16;5084798;28;20684;-66
2021/07/02 01:04:39;;;;;;;17.73;7.87;;;;;;;21.69;60.70;94707.34;5090042;28;20587;-64
2021/07/02 01:07:06;;;;;;;14.30;7.10;;;;;;;22.03;59.65;94700.88;5086752;28;20233;-66
2021/07/02 01:09:34;;;;;;;18.23;7.43;;;;;;;21.97;59.82;94696.88;5083119;28;20199;-66
2021/07/02 01:12:02;;;;;;;16.20;7.47;;;;;;;21.87;60.00;94691.97;5074807;28;20263;-64
2021/07/02 01:14:29;;;;;;;13.80;7.27;;;;;;;21.71;60.09;94680.34;5078797;28;20248;-65
2021/07/02 01:16:57;;;;;;;17.57;8.20;;;;;;;21.71;60.49;94685.69;5069304;28;20206;-66
2021/07/02 01:19:27;;;;;;;15.13;7.03;;;;;;;21.50;61.36;94687.59;5079914;28;20213;-63
2021/07/02 01:21:55;;;;;;;20.27;7.23;;;;;;;21.68;60.47;94686.31;5079665;28;20546;-63
2021/07/02 01:24:25;;;;;;;11.93;6.40;;;;;;;21.29;61.10;94684.19;5082350;28;20260;-66
2021/07/02 01:26:53;;;;;;;17.70;6.87;;;;;;;21.67;60.34;94679.44;5091236;28;20257;-63
2021/07/02 01:29:21;;;;;;;13.90;6.50;;;;;;;21.87;59.73;94681.28;5089070;28;20297;-61
2021/07/02 01:31:49;;;;;;;14.13;6.67;;;;;;;21.98;59.33;94680.53;5091273;28;20254;-62
2021/07/02 01:34:16;;;;;;;13.67;6.73;;;;;;;22.09;59.11;94686.22;5087896;28;20204;-64
2021/07/02 01:36:44;;;;;;;13.97;7.20;;;;;;;22.24;58.13;94687.47;5079011;28;20196;-63
2021/07/02 01:39:13;;;;;;;12.63;5.77;;;;;;;22.06;58.45;94676.22;5075436;28;20301;-64
2021/07/02 01:41:41;;;;;;;16.43;6.47;;;;;;;22.07;58.78;94678.56;5078751;28;20204;-64
2021/07/02 01:44:08;;;;;;;11.43;6.07;;;;;;;22.36;57.92;94680.22;5084351;28;20192;-64
2021/07/02 01:46:35;;;;;;;12.97;5.97;;;;;;;22.42;57.38;94678.13;5078305;28;20294;-67
2021/07/02 01:49:02;;;;;;;12.00;5.57;;;;;;;22.22;57.72;94692.34;5073757;28;20290;-63
2021/07/02 01:51:33;;;;;;;13.23;6.00;;;;;;;21.81;58.60;94686.06;5093577;28;20317;-64
2021/07/02 01:54:00;;;;;;;9.00;5.80;;;;;;;21.87;58.46;94683.97;5089064;28;20199;-64
2021/07/02 01:56:28;;;;;;;10.07;5.20;;;;;;;21.90;58.02;94683.28;5089962;28;20197;-63
2021/07/02 01:58:55;;;;;;;7.40;4.93;;;;;;;22.02;57.72;94680.66;5090617;28;20728;-64
2021/07/02 02:01:29;;;;;;;7.97;4.40;;;;;;;21.87;57.43;94681.28;5091980;28;20202;-64
2021/07/02 02:03:59;;;;;;;7.70;4.60;;;;;;;22.09;57.10;94672.88;5075608;28;20219;-63
2021/07/02 02:06:29;;;;;;;5.83;3.70;;;;;;;22.12;56.73;94669.53;5073134;28;20203;-64
2021/07/02 02:08:58;;;;;;;6.30;4.10;;;;;;;22.19;56.22;94667.09;5083156;28;20221;-63
2021/07/02 02:11:29;;;;;;;9.73;4.30;;;;;;;22.14;56.16;94670.00;5074959;28;20266;-63
2021/07/02 02:13:59;;;;;;;9.10;3.60;;;;;;;22.39;55.35;94649.44;5053401;28;20207;-61
2021/07/02 02:16:28;;;;;;;7.47;3.93;;;;;;;22.63;54.67;94660.09;5056815;28;20207;-64
2021/07/02 02:19:00;;;;;;;7.73;3.60;;;;;;;22.73;53.71;94652.41;5061335;28;20207;-64
2021/07/02 02:21:28;;;;;;;7.23;3.93;;;;;;;22.71;53.55;94651.97;5090595;28;20195;-63
2021/07/02 02:23:55;;;;;;;5.97;3.07;;;;;;;22.35;54.45;94656.53;5090374;28;20232;-63
2021/07/02 02:26:22;;;;;;;5.70;3.53;;;;;;;22.58;53.47;94660.31;5089863;28;20203;-64
2021/07/02 02:28:49;;;;;;;6.40;3.80;;;;;;;22.80;52.94;94657.97;5090089;28;20601;-65
2021/07/02 02:31:16;;;;;;;8.93;3.90;;;;;;;22.70;53.35;94649.63;5075770;28;20256;-62
2021/07/02 02:33:47;;;;;;;7.20;3.50;;;;;;;22.88;52.79;94653.59;5088790;28;20227;-64
2021/07/02 02:36:14;;;;;;;6.33;3.33;;;;;;;22.82;52.68;94645.03;5089160;28;20199;-64
2021/07/02 02:38:41;;;;;;;7.13;3.43;;;;;;;22.61;53.07;94660.44;5075581;28;20220;-64
2021/07/02 02:41:09;;;;;;;6.47;3.17;;;;;;;22.88;52.60;94659.72;5088611;28;20207;-64
2021/07/02 02:43:36;;;;;;;5.20;3.57;;;;;;;22.59;52.55;94661.91;5074323;28;20575;-59
2021/07/02 02:46:04;;;;;;;4.30;3.10;;;;;;;22.76;52.10;94662.41;5084662;28;20286;-64
2021/07/02 02:48:31;;;;;;;8.30;3.53;;;;;;;22.86;51.99;94667.28;5069747;28;20192;-61
2021/07/02 02:50:59;;;;;;;5.30;3.10;;;;;;;22.74;51.48;94669.97;5070276;28;20728;-62
2021/07/02 02:53:26;;;;;;;6.10;3.17;;;;;;;22.81;51.38;94666.75;5076246;28;20192;-65
2021/07/02 02:55:54;;;;;;;6.33;3.27;;;;;;;22.73;50.96;94679.13;5072765;28;20210;-62
2021/07/02 02:58:21;;;;;;;3.10;2.67;;;;;;;22.78;50.94;94689.56;5088753;28;20191;-62
2021/07/02 03:00:48;;;;;;;4.90;2.73;;;;;;;21.76;52.76;94685.47;5075327;28;20203;-68
2021/07/02 03:03:16;;;;;;;4.13;2.50;;;;;;;22.25;52.01;94678.31;5088312;28;20191;-64
2021/07/02 03:06:04;;;;;;;4.50;2.60;;;;;;;22.27;51.92;94676.88;5087873;28;20290;-62
2021/07/02 03:08:31;;;;;;;4.57;2.73;;;;;;;22.22;52.23;94677.13;5080521;28;20257;-64
2021/07/02 03:10:59;;;;;;;3.37;2.60;;;;;;;22.33;51.71;94675.56;5084662;28;20688;-62
2021/07/02 03:13:26;;;;;;;3.83;2.83;;;;;;;22.22;52.19;94679.78;5089394;28;20195;-63
2021/07/02 03:15:53;;;;;;;3.40;2.60;;;;;;;22.28;52.38;94683.78;5085392;28;20287;-67
2021/07/02 03:18:22;;;;;;;5.63;2.80;;;;;;;22.26;52.40;94688.69;5089454;28;20226;-63
2021/07/02 03:20:51;;;;;;;7.07;2.80;;;;;;;22.31;51.80;94685.78;5088893;28;20672;-61
2021/07/02 03:23:18;;;;;;;4.47;2.53;;;;;;;22.11;52.90;94692.00;5088340;28;20218;-61
2021/07/02 03:25:45;;;;;;;4.93;2.60;;;;;;;22.09;53.13;94688.91;5087499;28;20298;-65
2021/07/02 03:28:12;;;;;;;3.57;2.67;;;;;;;22.33;52.30;94688.13;5088070;28;20683;-64
2021/07/02 03:30:39;;;;;;;3.77;3.00;;;;;;;22.38;52.11;94693.25;5087317;28;20230;-63
2021/07/02 03:33:06;;;;;;;3.23;2.63;;;;;;;21.99;53.91;94702.66;5087754;28;20665;-62
2021/07/02 03:35:35;;;;;;;5.23;3.10;;;;;;;21.64;55.04;94707.53;5087481;28;20203;-62
2021/07/02 03:38:06;;;;;;;7.07;3.20;;;;;;;21.93;54.50;94699.41;5071525;28;20207;-62
2021/07/02 03:40:35;;;;;;;5.23;3.17;;;;;;;22.03;54.51;94700.88;5082361;28;20191;-64
2021/07/02 03:43:04;;;;;;;6.83;2.80;;;;;;;22.11;54.25;94694.69;5081169;28;20256;-62
2021/07/02 03:45:31;;;;;;;7.70;3.37;;;;;;;22.15;54.31;94700.91;5086681;28;20207;-63
2021/07/02 03:47:59;;;;;;;5.10;3.20;;;;;;;21.53;55.32;94695.72;5086343;28;20257;-65
2021/07/02 03:50:28;;;;;;;10.43;8.10;;;;;;;21.63;55.58;94699.88;5095008;28;20238;-62
2021/07/02 03:52:58;;;;;;;8.83;5.13;;;;;;;21.99;55.16;94708.00;5097518;28;20248;-63
2021/07/02 03:55:25;;;;;;;3.43;2.97;;;;;;;22.05;54.93;94717.34;5092597;28;20195;-66
2021/07/02 03:57:56;;;;;;;6.90;4.63;;;;;;;22.14;54.76;94720.69;5087937;28;20203;-60
2021/07/02 04:00:25;;;;;;;8.40;4.20;;;;;;;22.15;54.94;94716.94;5089933;28;20203;-66
2021/07/02 04:02:53;;;;;;;5.33;3.93;;;;;;;22.01;55.33;94717.22;5092255;28;20194;-62
2021/07/02 04:05:20;;;;;;;6.17;4.03;;;;;;;22.13;55.19;94713.81;5093338;28;20661;-64
2021/07/02 04:07:47;;;;;;;4.70;3.57;;;;;;;22.04;55.27;94721.88;5092773;28;20295;-64
2021/07/02 04:10:14;;;;;;;7.90;3.93;;;;;;;21.92;56.16;94729.09;5074827;28;20208;-67
2021/07/02 04:12:41;;;;;;;6.37;3.70;;;;;;;21.78;56.67;94733.94;5073300;28;20192;-62
2021/07/02 04:15:10;;;;;;;5.77;3.90;;;;;;;21.72;56.81;94729.91;5077448;28;20569;-66
2021/07/02 04:17:38;;;;;;;5.90;4.30;;;;;;;21.76;57.30;94738.81;5082575;28;20194;-66
2021/07/02 04:20:11;;;;;;;6.83;4.47;;;;;;;21.52;57.66;94741.38;5077852;28;20207;-66
2021/07/02 04:22:40;;;;;;;7.13;3.83;;;;;;;21.76;57.28;94741.47;5078201;28;20232;-64
2021/07/02 04:25:10;;;;;;;8.50;3.90;;;;;;;21.67;57.58;94744.22;5082882;28;20338;-66
2021/07/02 04:27:37;;;;;;;7.63;4.10;;;;;;;22.00;56.88;94746.91;5093685;28;20276;-67
2021/07/02 04:30:07;;;;;;;5.60;4.50;;;;;;;22.19;56.22;94739.16;5095452;28;20223;-69
2021/07/02 04:32:35;;;;;;;8.07;4.37;;;;;;;21.98;56.85;94743.78;5096544;28;20231;-67
2021/07/02 04:35:05;;;;;;;9.43;4.60;;;;;;;21.96;57.09;94738.78;5094787;28;20592;-65
2021/07/02 04:37:32;;;;;;;10.97;5.13;;;;;;;21.96;56.97;94746.78;5087055;28;20196;-66
2021/07/02 04:39:59;;;;;;;6.77;5.20;;;;;;;22.15;56.87;94743.63;5074545;28;20195;-66
2021/07/02 04:42:26;;;;;;;8.23;5.60;;;;;;;21.76;57.54;94757.47;5092645;28;20199;-66
2021/07/02 04:44:53;;;;;;;9.60;5.70;;;;;;;21.94;56.97;94754.34;5092789;28;20638;-65
2021/07/02 04:47:20;;;;;;;10.83;5.73;;;;;;;21.63;57.78;94753.19;5081302;28;20195;-64
2021/07/02 04:49:47;;;;;;;6.53;5.43;;;;;;;22.14;56.93;94752.72;5085710;28;20734;-65
2021/07/02 04:52:14;;;;;;;10.27;5.80;;;;;;;22.19;56.57;94749.81;5091410;28;20224;-67
2021/07/02 04:54:41;;;;;;;8.87;5.53;;;;;;;21.58;57.92;94751.53;5090641;28;20659;-69
2021/07/02 04:57:07;;;;;;;7.60;5.83;;;;;;;21.82;57.58;94754.28;5090491;28;20195;-65
2021/07/02 04:59:37;;;;;;;7.33;5.97;;;;;;;21.90;57.44;94758.00;5091588;28;20202;-67
2021/07/02 05:02:06;;;;;;;10.47;6.07;;;;;;;21.95;57.25;94765.81;5092214;28;20272;-66
2021/07/02 05:04:34;;;;;;;22.83;17.43;;;;;;;22.15;56.85;94760.38;5090531;28;20665;-66
2021/07/02 05:07:02;;;;;;;10.30;9.20;;;;;;;22.04;57.23;94769.94;5092277;28;20249;-68
2021/07/02 05:09:29;;;;;;;10.17;7.77;;;;;;;21.75;57.86;94771.94;5091469;28;20198;-62
2021/07/02 05:11:56;;;;;;;11.70;8.17;;;;;;;21.83;57.81;94769.22;5090876;28;20675;-65
2021/07/02 05:14:23;;;;;;;10.17;7.63;;;;;;;21.76;57.84;94768.94;5091618;28;20199;-64
2021/07/02 05:16:50;;;;;;;9.93;8.10;;;;;;;21.94;58.29;94775.69;5091396;28;20191;-63
2021/07/02 05:19:17;;;;;;;10.13;8.40;;;;;;;22.01;57.54;94775.13;5090243;28;20695;-66
2021/07/02 05:21:44;;;;;;;13.93;8.13;;;;;;;22.31;56.67;94779.22;5091836;28;20214;-68
2021/07/02 05:24:10;;;;;;;11.23;8.07;;;;;;;21.98;57.05;94786.47;5091552;28;20249;-64
2021/07/02 05:26:37;;;;;;;19.03;16.77;;;;;;;21.95;57.83;94781.81;5091400;28;20291;-69
2021/07/02 05:29:04;;;;;;;23.17;17.40;;;;;;;22.22;56.97;94791.09;5091319;28;20246;-65
2021/07/02 05:31:31;;;;;;;9.70;8.70;;;;;;;22.23;57.08;94793.44;5090943;28;20239;-63
2021/07/02 05:33:58;;;;;;;10.83;9.20;;;;;;;22.23;56.75;94798.78;5090940;28;20195;-68
2021/07/02 05:36:25;;;;;;;10.40;9.40;;;;;;;21.97;57.76;94795.56;5084651;28;20278;-65
2021/07/02 05:38:52;;;;;;;12.23;8.90;;;;;;;22.48;56.01;94797.69;5085147;28;20196;-65
2021/07/02 05:41:19;;;;;;;10.63;8.63;;;;;;;22.15;56.37;94797.75;5080073;28;20272;-64
2021/07/02 05:43:46;;;;;;;9.77;8.30;;;;;;;22.28;56.21;94806.56;5088520;28;20203;-64
2021/07/02 05:46:13;;;;;;;9.50;8.50;;;;;;;22.36;56.00;94808.38;5078009;28;20639;-64
2021/07/02 05:48:40;;;;;;;9.30;8.33;;;;;;;22.29;56.19;94805.47;5076439;28;20196;-65
2021/07/02 05:51:07;;;;;;;13.20;9.03;;;;;;;22.11;56.58;94790.75;5070863;28;20211;-65
2021/07/02 05:53:34;;;;;;;13.63;9.27;;;;;;;22.32;56.07;94812.81;5070762;28;20236;-64
2021/07/02 05:56:01;;;;;;;9.80;8.27;;;;;;;22.25;56.72;94807.25;5074577;28;20187;-63
2021/07/02 05:58:28;;;;;;;12.73;8.93;;;;;;;22.46;56.42;94807.97;5091004;28;20310;-64
2021/07/02 06:00:55;;;;;;;10.80;8.40;;;;;;;22.55;56.11;94806.00;5075495;28;20191;-64
2021/07/02 06:03:22;;;;;;;13.40;9.17;;;;;;;23.01;55.45;94807.44;5090818;28;20666;-64
2021/07/02 06:05:50;;;;;;;8.23;7.33;;;;;;;23.20;54.07;94814.88;5076031;28;20184;-64
2021/07/02 06:08:16;;;;;;;10.00;8.97;;;;;;;22.60;54.74;94813.00;5083396;28;20204;-63
2021/07/02 06:10:43;;;;;;;11.20;8.40;;;;;;;22.60;55.18;94813.00;5069937;28;20207;-64
2021/07/02 06:13:10;;;;;;;9.13;8.33;;;;;;;22.89;54.29;94810.13;5084629;28;20206;-64
2021/07/02 06:15:37;;;;;;;9.67;8.53;;;;;;;22.79;53.49;94811.34;5081989;28;20195;-65
2021/07/02 06:18:09;;;;;;;9.30;8.33;;;;;;;22.81;53.70;94819.81;5090165;28;20711;-65
2021/07/02 06:20:36;;;;;;;11.03;9.10;;;;;;;22.63;53.51;94817.66;5089752;28;20207;-66
2021/07/02 06:23:04;;;;;;;11.63;8.60;;;;;;;22.70;53.90;94821.34;5090779;28;20199;-63
2021/07/02 06:25:31;;;;;;;14.13;9.23;;;;;;;22.67;53.92;94819.34;5089274;28;20198;-64
2021/07/02 06:27:58;;;;;;;15.53;8.63;;;;;;;22.90;53.10;94812.44;5090063;28;20678;-65
2021/07/02 06:30:25;;;;;;;9.93;8.73;;;;;;;22.90;53.42;94817.78;5089982;28;20774;-64
2021/07/02 06:32:52;;;;;;;11.07;9.33;;;;;;;22.34;54.12;94821.28;5089816;28;20219;-66
2021/07/02 06:35:19;;;;;;;10.03;8.70;;;;;;;22.53;53.33;94824.22;5089923;28;20675;-65
2021/07/02 06:37:49;;;;;;;10.07;9.00;;;;;;;22.62;53.43;94824.13;5081731;28;20249;-66
2021/07/02 06:40:18;;;;;;;10.50;8.83;;;;;;;22.40;53.53;94824.50;5084765;28;20241;-64
2021/07/02 06:42:45;;;;;;;12.23;9.03;;;;;;;22.68;52.78;94833.50;5090470;28;20191;-65
2021/07/02 06:45:13;;;;;;;18.33;9.67;;;;;;;22.91;52.55;94824.72;5076386;28;20281;-64
2021/07/02 06:47:59;;;;;;;10.33;8.83;;;;;;;22.13;54.70;94836.56;5075450;28;20240;-65
2021/07/02 06:50:32;;;;;;;17.87;16.00;;;;;;;22.36;53.87;94835.06;5074328;28;20200;-64
2021/07/02 06:53:00;;;;;;;14.13;11.53;;;;;;;21.91;55.62;94831.59;5077344;28;20207;-64
2021/07/02 06:55:27;;;;;;;34.93;31.23;;;;;;;22.40;54.76;94830.63;5075924;28;20196;-65
2021/07/02 06:57:55;;;;;;;10.40;9.30;;;;;;;22.44;54.13;94826.19;5070134;28;20188;-64
2021/07/02 07:00:22;;;;;;;15.63;11.90;;;;;;;22.59;53.53;94822.13;5077101;28;20216;-65
2021/07/02 07:02:50;;;;;;;15.63;12.27;;;;;;;22.86;52.78;94827.59;5088692;28;20665;-64
2021/07/02 07:05:17;;;;;;;11.10;9.97;;;;;;;23.05;52.45;94830.50;5089929;28;20203;-64
2021/07/02 07:07:45;;;;;;;45.57;37.10;;;;;;;22.82;52.07;94834.75;5088752;28;20198;-64
2021/07/02 07:10:13;;;;;;;20.27;12.03;;;;;;;22.94;52.32;94840.06;5081562;28;20237;-65
2021/07/02 07:12:40;;;;;;;17.90;12.70;;;;;;;22.69;52.06;94835.84;5085100;28;20289;-66
2021/07/02 07:15:09;;;;;;;12.50;10.10;;;;;;;23.29;50.88;94835.06;5077897;28;20564;-65
2021/07/02 07:17:36;;;;;;;10.60;9.53;;;;;;;23.25;50.92;94833.41;5090607;28;20672;-63
2021/07/02 07:20:04;;;;;;;10.77;9.70;;;;;;;22.91;50.70;94848.78;5090161;28;20366;-64
2021/07/02 07:22:32;;;;;;;11.33;10.07;;;;;;;22.99;50.94;94837.16;5093232;28;20207;-62
2021/07/02 07:24:59;;;;;;;11.40;9.63;;;;;;;23.13;50.02;94837.63;5093650;28;20195;-65
2021/07/02 07:27:26;;;;;;;12.17;10.97;;;;;;;23.06;50.18;94837.38;5093778;28;20195;-65
2021/07/02 07:29:53;;;;;;;12.83;10.63;;;;;;;23.07;50.48;94833.63;5093714;28;20596;-63
2021/07/02 07:32:20;;;;;;;12.97;9.93;;;;;;;23.51;49.38;94833.81;5093133;28;20241;-66
2021/07/02 07:34:52;;;;;;;11.27;10.17;;;;;;;23.40;49.86;94828.16;5093899;28;20183;-64
2021/07/02 07:37:20;;;;;;;12.30;10.53;;;;;;;23.68;49.57;94831.66;5091378;28;20231;-66
2021/07/02 07:39:48;;;;;;;10.80;9.77;;;;;;;23.30;49.06;94841.22;5084688;28;20217;-65
2021/07/02 07:42:16;;;;;;;11.13;10.13;;;;;;;23.38;49.72;94837.63;5093957;28;20191;-64
2021/07/02 07:44:43;;;;;;;11.47;10.37;;;;;;;23.19;49.29;94829.38;5096405;28;20195;-65
2021/07/02 07:47:10;;;;;;;10.93;9.93;;;;;;;22.93;50.98;94843.88;5096399;28;20199;-63
2021/07/02 07:49:38;;;;;;;11.40;10.40;;;;;;;23.61;49.39;94836.03;5084012;28;20202;-64
2021/07/02 07:54:39;;;;;;;11.40;9.63;;;;;;;23.10;49.42;94842.88;5085985;28;20200;-63
2021/07/02 07:57:06;;;;;;;11.30;10.10;;;;;;;23.63;48.82;94839.16;5086849;28;20248;-63
2021/07/02 07:59:35;;;;;;;11.60;10.40;;;;;;;23.69;48.23;94843.13;5092182;28;20191;-64
2021/07/02 08:02:02;;;;;;;11.30;10.30;;;;;;;23.79;48.32;94831.97;5093589;28;20191;-64
2021/07/02 08:04:29;;;;;;;10.90;9.90;;;;;;;23.93;48.05;94827.00;5092851;28;20199;-64
2021/07/02 08:06:56;;;;;;;10.10;9.20;;;;;;;24.07;46.75;94838.13;5093031;28;20584;-65
2021/07/02 08:09:23;;;;;;;11.37;10.17;;;;;;;23.98;47.24;94834.78;5089412;28;20190;-65
2021/07/02 08:11:50;;;;;;;12.43;10.37;;;;;;;24.09;47.01;94841.22;5081394;28;20215;-66
2021/07/02 08:14:16;;;;;;;10.73;9.63;;;;;;;24.23;46.88;94841.63;5091718;28;20290;-63
2021/07/02 08:16:43;;;;;;;16.07;14.33;;;;;;;24.64;46.55;94825.09;5079926;28;20195;-63
2021/07/02 08:19:10;;;;;;;10.97;9.33;;;;;;;24.49;45.69;94828.53;5092413;28;20187;-62
2021/07/02 08:21:37;;;;;;;11.53;9.20;;;;;;;24.52;46.43;94837.78;5093105;28;20203;-63
2021/07/02 08:24:04;;;;;;;10.83;9.80;;;;;;;24.29;46.96;94829.53;5092143;28;20202;-65
2021/07/02 08:26:31;;;;;;;42.10;37.63;;;;;;;24.55;45.74;94827.16;5092886;28;20214;-63
2021/07/02 08:31:44;;;;;;;10.77;8.73;;;;;;;24.65;45.69;94834.66;5092099;28;20313;-65
2021/07/02 08:34:11;;;;;;;10.23;9.13;;;;;;;24.95;44.84;94830.47;5091465;28;20203;-63
2021/07/02 08:36:38;;;;;;;10.00;8.43;;;;;;;25.26;44.75;94834.25;5092313;28;20183;-64
2021/07/02 08:39:04;;;;;;;9.10;7.73;;;;;;;24.79;43.78;94815.53;5077488;28;20570;-64
2021/07/02 08:41:32;;;;;;;7.40;6.67;;;;;;;24.59;43.05;94825.34;5081740;28;20246;-64
2021/07/02 08:44:00;;;;;;;8.90;7.00;;;;;;;24.29;44.31;94823.41;5085479;28;20196;-65
2021/07/02 08:46:28;;;;;;;6.50;5.90;;;;;;;24.78;42.93;94808.63;5082078;28;20238;-64
2021/07/02 08:48:58;;;;;;;7.13;5.13;;;;;;;24.41;42.70;94820.66;5089744;28;20202;-63
2021/07/02 08:51:25;;;;;;;7.27;4.80;;;;;;;24.36;42.35;94810.97;5080228;28;20236;-63
2021/07/02 08:53:55;;;;;;;11.03;6.33;;;;;;;24.88;42.26;94808.09;5077126;28;20199;-64
2021/07/02 08:56:23;;;;;;;5.80;5.17;;;;;;;25.06;42.01;94815.44;5079369;28;20205;-67
2021/07/02 08:58:50;;;;;;;6.47;5.17;;;;;;;25.00;41.11;94811.44;5078375;28;20195;-65
2021/07/02 09:01:41;;;;;;;6.97;5.13;;;;;;;25.47;40.30;94815.97;5091148;28;20202;-66
2021/07/02 09:04:18;;;;;;;9.73;5.40;;;;;;;25.46;40.85;94803.69;5090591;28;20707;-63
2021/07/02 09:07:09;;;;;;;7.07;4.60;;;;;;;25.68;40.84;94808.38;5072610;28;20204;-64
2021/07/02 09:09:54;;;;;;;8.13;4.70;;;;;;;25.88;39.66;94828.72;5089707;28;20223;-67
2021/07/02 09:12:32;;;;;;;13.90;4.50;;;;;;;25.74;39.88;94813.13;5092349;28;20258;-63
2021/07/02 09:15:10;;;;;;;5.77;4.60;;;;;;;25.74;39.00;94813.13;5084820;28;20204;-63
2021/07/02 09:17:53;;;;;;;5.63;4.20;;;;;;;26.12;39.01;94808.88;5086337;28;20203;-64
2021/07/02 09:20:33;;;;;;;5.43;4.10;;;;;;;25.82;39.11;94803.31;5090629;28;20586;-64
2021/07/02 09:23:02;;;;;;;6.10;5.00;;;;;;;25.83;39.33;94811.00;5091732;28;20203;-65
2021/07/02 09:25:41;;;;;;;7.03;4.73;;;;;;;25.81;40.17;94802.53;5091087;28;20191;-64
2021/07/02 09:28:13;;;;;;;22.60;5.00;;;;;;;26.04;39.47;94811.44;5091489;28;20664;-64
2021/07/02 09:30:52;;;;;;;7.03;4.23;;;;;;;26.37;38.66;94807.47;5090497;28;20227;-66
2021/07/02 09:33:25;;;;;;;4.37;3.93;;;;;;;26.40;40.00;94790.59;5082278;28;20227;-65
2021/07/02 09:35:58;;;;;;;5.33;4.30;;;;;;;26.24;37.96;94793.38;5072468;28;20200;-63
2021/07/02 09:38:40;;;;;;;5.70;3.20;;;;;;;25.87;37.73;94789.59;5091371;28;20203;-64
2021/07/02 09:41:09;;;;;;;8.07;3.80;;;;;;;26.08;38.07;94800.75;5070951;28;20238;-63
2021/07/02 09:43:38;;;;;;;11.20;6.67;;;;;;;26.37;37.27;94789.41;5084342;28;20198;-64
2021/07/02 09:46:07;;;;;;;7.20;4.60;;;;;;;26.58;38.56;94794.38;5090981;28;20195;-64
2021/07/02 09:48:45;;;;;;;7.73;6.93;;;;;;;26.46;36.96;94791.88;5093372;28;20281;-64
2021/07/02 09:51:13;;;;;;;4.67;3.50;;;;;;;26.14;36.94;94796.66;5073999;28;20195;-63
2021/07/02 09:53:41;;;;;;;8.33;3.30;;;;;;;25.88;36.97;94785.75;5072911;28;20224;-62
2021/07/02 09:56:17;;;;;;;6.23;2.90;;;;;;;26.60;37.02;94787.53;5087523;28;20203;-63
2021/07/02 09:58:44;;;;;;;6.33;3.20;;;;;;;26.69;36.71;94789.97;5087100;28;20195;-63
2021/07/02 10:01:23;;;;;;;8.40;3.03;;;;;;;26.72;35.74;94781.97;5092523;28;20298;-64
2021/07/02 10:03:50;;;;;;;3.77;2.50;;;;;;;26.83;36.36;94782.13;5077809;28;20257;-64
2021/07/02 10:06:21;;;;;;;2.63;2.43;;;;;;;26.49;36.15;94789.25;5089728;28;20191;-64
2021/07/02 10:08:49;;;;;;;4.00;2.80;;;;;;;26.71;36.88;94775.06;5091113;28;20552;-63
2021/07/02 10:11:16;;;;;;;2.93;2.47;;;;;;;26.94;36.88;94778.50;5091004;28;20696;-62
2021/07/02 10:13:46;;;;;;;5.47;2.60;;;;;;;27.12;36.38;94772.59;5091127;28;20235;-63
2021/07/02 10:16:14;;;;;;;6.40;2.50;;;;;;;27.38;36.19;94770.69;5090127;28;20210;-63
2021/07/02 10:18:46;;;;;;;2.40;2.20;;;;;;;27.03;34.74;94776.31;5090288;28;20199;-62
2021/07/02 10:21:15;;;;;;;3.53;2.40;;;;;;;27.09;35.71;94771.41;5090556;28;20218;-63
2021/07/02 10:23:46;;;;;;;3.97;2.40;;;;;;;27.36;35.50;94772.97;5090352;28;20558;-64
2021/07/02 10:26:15;;;;;;;4.27;2.53;;;;;;;26.67;36.37;94768.81;5089855;28;20588;-63
2021/07/02 10:28:44;;;;;;;5.33;2.80;;;;;;;27.19;36.12;94767.31;5089763;28;20202;-63
2021/07/02 10:31:12;;;;;;;5.30;2.40;;;;;;;26.94;35.93;94773.13;5089623;28;20288;-65
2021/07/02 10:33:45;;;;;;;4.13;2.50;;;;;;;26.98;35.50;94773.16;5090349;28;20226;-63
2021/07/02 10:36:15;;;;;;;2.70;2.50;;;;;;;27.56;35.22;94754.78;5089710;28;20206;-63
2021/07/02 10:38:48;;;;;;;4.73;2.33;;;;;;;27.13;35.38;94760.69;5090187;28;20223;-66
2021/07/02 10:41:25;;;;;;;5.97;2.40;;;;;;;27.13;35.16;94752.63;5080903;28;20661;-63
2021/07/02 10:44:11;;;;;;;3.73;2.40;;;;;;;27.37;36.09;94738.78;5086743;28;20217;-65
2021/07/02 10:46:40;;;;;;;5.17;2.50;;;;;;;27.24;35.57;94751.66;5090364;28;20195;-64
2021/07/02 10:49:10;;;;;;;7.70;2.80;;;;;;;27.06;35.56;94741.78;5071483;28;20200;-64
2021/07/02 10:51:42;;;;;;;5.40;3.13;;;;;;;27.31;34.93;94740.22;5080469;28;20203;-64
2021/07/02 10:54:11;;;;;;;6.40;2.97;;;;;;;27.96;34.88;94730.66;5085569;28;20231;-64
2021/07/02 10:56:38;;;;;;;3.30;3.00;;;;;;;27.90;33.81;94737.50;5069857;28;20199;-66
2021/07/02 10:59:07;;;;;;;6.30;3.33;;;;;;;28.20;34.08;94729.34;5070926;28;20662;-63
2021/07/02 11:01:34;;;;;;;5.87;3.10;;;;;;;28.36;34.26;94733.34;5090577;28;20214;-64
2021/07/02 11:04:32;;;;;;;7.67;3.23;;;;;;;28.42;34.38;94737.28;5089099;28;20586;-63
2021/07/02 11:07:00;;;;;;;4.20;3.53;;;;;;;28.20;33.98;94738.22;5089786;28;20605;-64
2021/07/02 11:09:57;;;;;;;7.20;3.40;;;;;;;28.06;35.07;94746.16;5089203;28;20207;-64
2021/07/02 11:12:33;;;;;;;5.57;3.90;;;;;;;28.37;35.07;94736.84;5090060;28;20219;-63
2021/07/02 11:15:03;;;;;;;5.03;3.83;;;;;;;28.75;34.89;94734.50;5069025;28;20206;-64
2021/07/02 11:17:31;;;;;;;4.13;3.50;;;;;;;28.32;34.18;94727.16;5083008;28;20199;-63
2021/07/02 11:20:07;;;;;;;10.47;4.93;;;;;;;28.22;34.61;94727.06;5089538;28;20278;-64
2021/07/02 11:22:47;;;;;;;13.50;9.87;;;;;;;29.03;34.86;94716.97;5089675;28;20615;-64
2021/07/02 11:25:24;;;;;;;8.47;4.00;;;;;;;28.73;34.08;94717.91;5089114;28;20227;-64
2021/07/02 11:27:52;;;;;;;6.80;3.87;;;;;;;29.12;34.46;94725.53;5075814;28;20191;-64
2021/07/02 11:32:59;;;;;;;5.53;3.93;;;;;;;28.23;34.82;94718.59;5089229;28;20233;-64
2021/07/02 11:35:41;;;;;;;6.37;3.80;;;;;;;28.56;34.45;94721.25;5089222;28;20187;-64
2021/07/02 11:38:15;;;;;;;10.37;4.30;;;;;;;29.31;34.91;94717.91;5081268;28;20564;-64
2021/07/02 11:40:49;;;;;;;4.73;3.50;;;;;;;29.23;33.56;94720.97;5084456;28;20222;-63
2021/07/02 11:43:35;;;;;;;9.87;3.80;;;;;;;28.37;34.08;94720.66;5081547;28;20668;-65
2021/07/02 11:46:07;;;;;;;4.47;3.63;;;;;;;28.25;34.53;94727.09;5069147;28;20227;-63